Orange Park, Florida
Current Conditions -  °F | °C
As of 5:53 AM on Saturday 20 Dec 2014 (Local Time) from KNIP Reporting Station
Broken Clouds Broken Clouds  
Wind Chill: 59°   Ceiling: 11000
Heat Index: 59°   Visibility: 10mi
Dew Point: 50°   Wind: 8mph
Humidity: 72%   Direction: 350°N
Pressure: 30.11"   Gusts: NA
Location:  30.17°N, 81.7°W
Report Text: KNIP 201053Z 35007KT 10SM BKN110 BKN180 15/10 A3011 RMK AO2 SLP190 T01500100
Loading
Personal Weather Stations






























Interactive Weather Map New forecast layout! Learn more

10-Day Weather Forecast

Advertisements
Track Severe Weather on mobile